sensor_id;sensor_type;location;lat;lon;timestamp;pressure;altitude;pressure_sealevel;temperature;humidity
74561;BME280;62979;55.720;37.606;2023-11-18T00:02:05;100597.28;;;-1.68;50.18
74561;BME280;62979;55.720;37.606;2023-11-18T00:04:32;100594.88;;;-1.65;49.96
74561;BME280;62979;55.720;37.606;2023-11-18T00:06:59;100598.22;;;-1.66;50.72
74561;BME280;62979;55.720;37.606;2023-11-18T00:09:28;100586.91;;;-1.72;50.21
74561;BME280;62979;55.720;37.606;2023-11-18T00:11:55;100597.50;;;-1.85;50.53
74561;BME280;62979;55.720;37.606;2023-11-18T00:14:22;100600.19;;;-1.82;50.67
74561;BME280;62979;55.720;37.606;2023-11-18T00:16:49;100601.88;;;-1.82;50.80
74561;BME280;62979;55.720;37.606;2023-11-18T00:19:16;100597.81;;;-1.77;51.31
74561;BME280;62979;55.720;37.606;2023-11-18T00:21:43;100600.00;;;-1.86;51.09
74561;BME280;62979;55.720;37.606;2023-11-18T00:24:11;100600.75;;;-1.89;51.22
74561;BME280;62979;55.720;37.606;2023-11-18T00:26:40;100611.56;;;-1.96;51.44
74561;BME280;62979;55.720;37.606;2023-11-18T00:29:07;100607.13;;;-2.00;51.32
74561;BME280;62979;55.720;37.606;2023-11-18T00:31:34;100609.56;;;-2.03;51.72
74561;BME280;62979;55.720;37.606;2023-11-18T00:34:03;100603.75;;;-1.99;52.12
74561;BME280;62979;55.720;37.606;2023-11-18T00:36:30;100620.44;;;-1.88;51.75
74561;BME280;62979;55.720;37.606;2023-11-18T00:38:57;100612.75;;;-1.88;51.77
74561;BME280;62979;55.720;37.606;2023-11-18T00:41:24;100590.88;;;-2.01;51.97
74561;BME280;62979;55.720;37.606;2023-11-18T00:43:53;100614.81;;;-2.00;52.30
74561;BME280;62979;55.720;37.606;2023-11-18T00:46:30;100617.53;;;-1.97;52.39
74561;BME280;62979;55.720;37.606;2023-11-18T00:48:57;100612.97;;;-2.04;52.68
74561;BME280;62979;55.720;37.606;2023-11-18T00:51:24;100611.19;;;-2.05;52.64
74561;BME280;62979;55.720;37.606;2023-11-18T00:53:52;100607.56;;;-2.10;52.88
74561;BME280;62979;55.720;37.606;2023-11-18T00:56:20;100623.59;;;-1.95;53.08
74561;BME280;62979;55.720;37.606;2023-11-18T00:58:47;100620.97;;;-1.97;52.97
74561;BME280;62979;55.720;37.606;2023-11-18T01:01:16;100615.91;;;-1.95;53.26
74561;BME280;62979;55.720;37.606;2023-11-18T01:03:43;100613.56;;;-2.10;52.90
74561;BME280;62979;55.720;37.606;2023-11-18T01:06:11;100615.31;;;-2.09;53.29
74561;BME280;62979;55.720;37.606;2023-11-18T01:08:38;100615.13;;;-2.13;53.78
74561;BME280;62979;55.720;37.606;2023-11-18T01:11:06;100629.84;;;-2.09;53.62
74561;BME280;62979;55.720;37.606;2023-11-18T01:13:34;100628.78;;;-2.14;53.72
74561;BME280;62979;55.720;37.606;2023-11-18T01:16:01;100641.75;;;-2.10;53.97
74561;BME280;62979;55.720;37.606;2023-11-18T01:18:31;100634.22;;;-2.07;54.10
74561;BME280;62979;55.720;37.606;2023-11-18T01:20:58;100633.19;;;-2.10;54.07
74561;BME280;62979;55.720;37.606;2023-11-18T01:23:25;100625.88;;;-2.22;53.90
74561;BME280;62979;55.720;37.606;2023-11-18T01:25:52;100632.97;;;-2.17;54.61
74561;BME280;62979;55.720;37.606;2023-11-18T01:28:21;100635.72;;;-2.12;54.40
74561;BME280;62979;55.720;37.606;2023-11-18T01:30:51;100628.63;;;-2.18;54.59
74561;BME280;62979;55.720;37.606;2023-11-18T01:33:18;100638.06;;;-2.17;54.50
74561;BME280;62979;55.720;37.606;2023-11-18T01:35:47;100644.19;;;-2.13;54.71
74561;BME280;62979;55.720;37.606;2023-11-18T01:38:14;100646.56;;;-2.18;54.50
74561;BME280;62979;55.720;37.606;2023-11-18T01:40:41;100635.25;;;-2.23;54.68
74561;BME280;62979;55.720;37.606;2023-11-18T01:43:09;100637.69;;;-2.26;54.29
74561;BME280;62979;55.720;37.606;2023-11-18T01:45:39;100626.09;;;-2.37;54.84
74561;BME280;62979;55.720;37.606;2023-11-18T01:48:10;100645.44;;;-2.24;54.68
74561;BME280;62979;55.720;37.606;2023-11-18T01:50:40;100639.41;;;-2.25;54.47
74561;BME280;62979;55.720;37.606;2023-11-18T01:53:10;100637.28;;;-2.35;54.50
74561;BME280;62979;55.720;37.606;2023-11-18T01:55:39;100633.97;;;-2.32;54.72
74561;BME280;62979;55.720;37.606;2023-11-18T01:58:07;100645.25;;;-2.29;54.53
74561;BME280;62979;55.720;37.606;2023-11-18T02:00:36;100646.16;;;-2.27;54.50
74561;BME280;62979;55.720;37.606;2023-11-18T02:03:07;100640.91;;;-2.30;54.87
74561;BME280;62979;55.720;37.606;2023-11-18T02:05:34;100641.63;;;-2.34;54.97
74561;BME280;62979;55.720;37.606;2023-11-18T02:08:04;100630.22;;;-2.41;55.17
74561;BME280;62979;55.720;37.606;2023-11-18T02:10:34;100644.22;;;-2.32;55.44
74561;BME280;62979;55.720;37.606;2023-11-18T02:13:17;100642.53;;;-2.32;55.32
74561;BME280;62979;55.720;37.606;2023-11-18T02:15:52;100645.78;;;-2.36;55.29
74561;BME280;62979;55.720;37.606;2023-11-18T02:18:24;100647.63;;;-2.33;55.42
74561;BME280;62979;55.720;37.606;2023-11-18T02:20:53;100649.31;;;-2.34;55.29
74561;BME280;62979;55.720;37.606;2023-11-18T02:23:23;100634.66;;;-2.37;55.58
74561;BME280;62979;55.720;37.606;2023-11-18T02:25:53;100644.19;;;-2.34;55.56
74561;BME280;62979;55.720;37.606;2023-11-18T02:28:21;100599.56;;;-2.59;55.60
74561;BME280;62979;55.720;37.606;2023-11-18T02:30:55;100639.72;;;-2.38;55.93
74561;BME280;62979;55.720;37.606;2023-11-18T02:33:35;100649.03;;;-2.40;56.06
74561;BME280;62979;55.720;37.606;2023-11-18T02:36:14;100649.09;;;-2.39;55.97
74561;BME280;62979;55.720;37.606;2023-11-18T02:38:50;100641.41;;;-2.39;56.02
74561;BME280;62979;55.720;37.606;2023-11-18T02:41:22;100640.41;;;-2.42;55.87
74561;BME280;62979;55.720;37.606;2023-11-18T02:43:51;100639.53;;;-2.43;56.54
74561;BME280;62979;55.720;37.606;2023-11-18T02:46:20;100644.66;;;-2.43;56.06
74561;BME280;62979;55.720;37.606;2023-11-18T02:48:53;100645.28;;;-2.48;56.04
74561;BME280;62979;55.720;37.606;2023-11-18T02:51:20;100642.75;;;-2.47;56.43
74561;BME280;62979;55.720;37.606;2023-11-18T02:53:48;100644.53;;;-2.46;56.55
74561;BME280;62979;55.720;37.606;2023-11-18T02:56:15;100640.91;;;-2.51;56.44
74561;BME280;62979;55.720;37.606;2023-11-18T02:58:45;100649.50;;;-2.49;56.45
74561;BME280;62979;55.720;37.606;2023-11-18T03:01:13;100642.63;;;-2.50;56.54
74561;BME280;62979;55.720;37.606;2023-11-18T03:03:40;100656.09;;;-2.54;56.40
74561;BME280;62979;55.720;37.606;2023-11-18T03:06:08;100651.88;;;-2.53;56.45
74561;BME280;62979;55.720;37.606;2023-11-18T03:08:37;100651.88;;;-2.53;56.58
74561;BME280;62979;55.720;37.606;2023-11-18T03:11:06;100651.72;;;-2.56;56.63
74561;BME280;62979;55.720;37.606;2023-11-18T03:13:35;100657.75;;;-2.56;57.04
74561;BME280;62979;55.720;37.606;2023-11-18T03:16:08;100662.03;;;-2.55;56.94
74561;BME280;62979;55.720;37.606;2023-11-18T03:18:38;100659.63;;;-2.52;56.95
74561;BME280;62979;55.720;37.606;2023-11-18T03:21:06;100656.84;;;-2.56;56.88
74561;BME280;62979;55.720;37.606;2023-11-18T03:23:38;100643.47;;;-2.70;56.91
74561;BME280;62979;55.720;37.606;2023-11-18T03:26:06;100656.47;;;-2.66;56.94
74561;BME280;62979;55.720;37.606;2023-11-18T03:28:35;100658.88;;;-2.69;57.17
74561;BME280;62979;55.720;37.606;2023-11-18T03:31:03;100670.88;;;-2.68;57.28
74561;BME280;62979;55.720;37.606;2023-11-18T03:33:33;100667.50;;;-2.67;57.29
74561;BME280;62979;55.720;37.606;2023-11-18T03:35:59;100665.81;;;-2.66;57.27
74561;BME280;62979;55.720;37.606;2023-11-18T03:38:27;100663.03;;;-2.71;57.33
74561;BME280;62979;55.720;37.606;2023-11-18T03:40:54;100655.09;;;-2.77;57.65
74561;BME280;62979;55.720;37.606;2023-11-18T03:43:22;100649.56;;;-2.67;57.47
74561;BME280;62979;55.720;37.606;2023-11-18T03:45:49;100654.78;;;-2.65;57.91
74561;BME280;62979;55.720;37.606;2023-11-18T03:48:17;100633.75;;;-2.77;57.63
74561;BME280;62979;55.720;37.606;2023-11-18T03:50:46;100644.00;;;-2.77;57.79
74561;BME280;62979;55.720;37.606;2023-11-18T03:53:13;100670.06;;;-2.67;57.61
74561;BME280;62979;55.720;37.606;2023-11-18T03:55:41;100666.72;;;-2.66;58.10
74561;BME280;62979;55.720;37.606;2023-11-18T03:58:08;100670.06;;;-2.67;58.13
74561;BME280;62979;55.720;37.606;2023-11-18T04:00:35;100676.00;;;-2.68;57.66
74561;BME280;62979;55.720;37.606;2023-11-18T04:03:02;100671.66;;;-2.69;57.84
74561;BME280;62979;55.720;37.606;2023-11-18T04:05:33;100669.81;;;-2.73;57.53
74561;BME280;62979;55.720;37.606;2023-11-18T04:08:05;100663.03;;;-2.71;57.84
74561;BME280;62979;55.720;37.606;2023-11-18T04:10:32;100672.53;;;-2.68;57.55
74561;BME280;62979;55.720;37.606;2023-11-18T04:12:59;100666.34;;;-2.73;57.65
74561;BME280;62979;55.720;37.606;2023-11-18T04:15:28;100680.97;;;-2.71;57.67
74561;BME280;62979;55.720;37.606;2023-11-18T04:17:55;100674.94;;;-2.73;57.50
74561;BME280;62979;55.720;37.606;2023-11-18T04:20:22;100656.16;;;-2.91;57.83
74561;BME280;62979;55.720;37.606;2023-11-18T04:22:49;100674.63;;;-2.79;57.78
74561;BME280;62979;55.720;37.606;2023-11-18T04:25:18;100674.75;;;-2.76;57.94
74561;BME280;62979;55.720;37.606;2023-11-18T04:27:46;100663.09;;;-2.89;57.77
74561;BME280;62979;55.720;37.606;2023-11-18T04:30:13;100677.28;;;-2.77;57.64
74561;BME280;62979;55.720;37.606;2023-11-18T04:32:41;100678.66;;;-2.84;58.20
74561;BME280;62979;55.720;37.606;2023-11-18T04:35:08;100680.56;;;-2.80;57.76
74561;BME280;62979;55.720;37.606;2023-11-18T04:37:37;100679.63;;;-2.82;57.89
74561;BME280;62979;55.720;37.606;2023-11-18T04:40:09;100665.41;;;-2.95;57.95
74561;BME280;62979;55.720;37.606;2023-11-18T04:42:39;100683.44;;;-2.92;58.23
74561;BME280;62979;55.720;37.606;2023-11-18T04:45:07;100664.44;;;-2.97;58.19
74561;BME280;62979;55.720;37.606;2023-11-18T04:47:36;100656.69;;;-2.98;58.39
74561;BME280;62979;55.720;37.606;2023-11-18T04:50:04;100676.84;;;-2.87;58.31
74561;BME280;62979;55.720;37.606;2023-11-18T04:52:33;100656.56;;;-3.02;58.34
74561;BME280;62979;55.720;37.606;2023-11-18T04:55:02;100675.97;;;-2.87;58.17
74561;BME280;62979;55.720;37.606;2023-11-18T04:57:32;100676.84;;;-2.87;58.18
74561;BME280;62979;55.720;37.606;2023-11-18T05:00:01;100681.97;;;-2.87;58.16
74561;BME280;62979;55.720;37.606;2023-11-18T05:02:36;100681.97;;;-2.87;58.24
74561;BME280;62979;55.720;37.606;2023-11-18T05:05:04;100674.81;;;-2.94;58.21
74561;BME280;62979;55.720;37.606;2023-11-18T05:07:32;100672.34;;;-2.92;58.22
74561;BME280;62979;55.720;37.606;2023-11-18T05:10:00;100677.84;;;-2.83;58.35
74561;BME280;62979;55.720;37.606;2023-11-18T05:12:28;100677.84;;;-2.83;58.38
74561;BME280;62979;55.720;37.606;2023-11-18T05:14:55;100675.03;;;-2.89;58.15
74561;BME280;62979;55.720;37.606;2023-11-18T05:17:25;100688.09;;;-2.83;58.24
74561;BME280;62979;55.720;37.606;2023-11-18T05:19:53;100685.28;;;-2.89;58.48
74561;BME280;62979;55.720;37.606;2023-11-18T05:22:20;100686.22;;;-2.87;58.44
74561;BME280;62979;55.720;37.606;2023-11-18T05:24:48;100691.72;;;-2.78;58.21
74561;BME280;62979;55.720;37.606;2023-11-18T05:27:15;100687.56;;;-2.76;58.46
74561;BME280;62979;55.720;37.606;2023-11-18T05:29:43;100698.97;;;-2.69;57.90
74561;BME280;62979;55.720;37.606;2023-11-18T05:32:13;100696.19;;;-2.74;58.09
74561;BME280;62979;55.720;37.606;2023-11-18T05:34:42;100677.19;;;-2.79;57.87
74561;BME280;62979;55.720;37.606;2023-11-18T05:37:09;100682.84;;;-2.67;58.15
74561;BME280;62979;55.720;37.606;2023-11-18T05:39:37;100688.81;;;-2.68;58.00
74561;BME280;62979;55.720;37.606;2023-11-18T05:42:09;100690.63;;;-2.65;57.90
74561;BME280;62979;55.720;37.606;2023-11-18T05:44:37;100689.19;;;-2.59;57.71
74561;BME280;62979;55.720;37.606;2023-11-18T05:47:05;100691.81;;;-2.57;57.85
74561;BME280;62979;55.720;37.606;2023-11-18T05:49:33;100692.84;;;-2.53;57.61
74561;BME280;62979;55.720;37.606;2023-11-18T05:52:01;100705.13;;;-2.46;57.55
74561;BME280;62979;55.720;37.606;2023-11-18T05:54:28;100696.63;;;-2.45;57.22
74561;BME280;62979;55.720;37.606;2023-11-18T05:56:56;100708.88;;;-2.38;57.53
74561;BME280;62979;55.720;37.606;2023-11-18T05:59:24;100698.50;;;-2.41;57.21
74561;BME280;62979;55.720;37.606;2023-11-18T06:01:52;100706.56;;;-2.32;57.04
74561;BME280;62979;55.720;37.606;2023-11-18T06:04:19;100707.66;;;-2.27;57.19
74561;BME280;62979;55.720;37.606;2023-11-18T06:06:47;100700.66;;;-2.31;56.72
74561;BME280;62979;55.720;37.606;2023-11-18T06:09:15;100705.28;;;-2.22;56.37
74561;BME280;62979;55.720;37.606;2023-11-18T06:11:46;100705.28;;;-2.22;56.52
74561;BME280;62979;55.720;37.606;2023-11-18T06:14:14;100709.66;;;-2.20;56.43
74561;BME280;62979;55.720;37.606;2023-11-18T06:16:42;100714.00;;;-2.19;56.26
74561;BME280;62979;55.720;37.606;2023-11-18T06:19:09;100713.88;;;-2.22;56.33
74561;BME280;62979;55.720;37.606;2023-11-18T06:21:36;100709.53;;;-2.23;56.63
74561;BME280;62979;55.720;37.606;2023-11-18T06:24:04;100714.94;;;-2.17;56.50
74561;BME280;62979;55.720;37.606;2023-11-18T06:26:33;100698.44;;;-2.23;56.50
74561;BME280;62979;55.720;37.606;2023-11-18T06:29:01;100717.75;;;-2.10;56.66
74561;BME280;62979;55.720;37.606;2023-11-18T06:31:29;100709.31;;;-2.08;56.79
74561;BME280;62979;55.720;37.606;2023-11-18T06:33:57;100712.75;;;-2.07;56.44
74561;BME280;62979;55.720;37.606;2023-11-18T06:36:24;100720.31;;;-2.10;56.66
74561;BME280;62979;55.720;37.606;2023-11-18T06:38:53;100710.06;;;-2.10;56.96
74561;BME280;62979;55.720;37.606;2023-11-18T06:41:22;100723.09;;;-2.06;56.41
74561;BME280;62979;55.720;37.606;2023-11-18T06:43:52;100719.84;;;-2.02;56.09
74561;BME280;62979;55.720;37.606;2023-11-18T06:46:27;100720.09;;;-1.96;56.41
74561;BME280;62979;55.720;37.606;2023-11-18T06:48:57;100713.69;;;-2.05;56.46
74561;BME280;62979;55.720;37.606;2023-11-18T06:51:26;100708.09;;;-1.97;55.75
74561;BME280;62979;55.720;37.606;2023-11-18T06:53:54;100730.94;;;-1.82;55.75
74561;BME280;62979;55.720;37.606;2023-11-18T06:56:22;100733.22;;;-1.88;55.85
74561;BME280;62979;55.720;37.606;2023-11-18T06:58:51;100733.50;;;-1.82;56.19
74561;BME280;62979;55.720;37.606;2023-11-18T07:01:19;100718.78;;;-1.86;55.29
74561;BME280;62979;55.720;37.606;2023-11-18T07:03:47;100729.56;;;-1.74;55.53
74561;BME280;62979;55.720;37.606;2023-11-18T07:06:19;100726.25;;;-1.71;54.73
74561;BME280;62979;55.720;37.606;2023-11-18T07:08:48;100721.06;;;-1.73;55.21
74561;BME280;62979;55.720;37.606;2023-11-18T07:11:15;100729.28;;;-1.60;54.94
74561;BME280;62979;55.720;37.606;2023-11-18T07:13:42;100724.69;;;-1.46;54.56
74561;BME280;62979;55.720;37.606;2023-11-18T07:16:11;100721.63;;;-1.38;54.41
74561;BME280;62979;55.720;37.606;2023-11-18T07:18:40;100719.19;;;-1.35;54.48
74561;BME280;62979;55.720;37.606;2023-11-18T07:21:07;100715.63;;;-1.38;54.66
74561;BME280;62979;55.720;37.606;2023-11-18T07:23:35;100699.00;;;-1.48;54.82
74561;BME280;62979;55.720;37.606;2023-11-18T07:26:02;100722.69;;;-1.33;54.56
74561;BME280;62979;55.720;37.606;2023-11-18T07:28:30;100716.75;;;-1.32;54.55
74561;BME280;62979;55.720;37.606;2023-11-18T07:30:58;100713.38;;;-1.31;54.72
74561;BME280;62979;55.720;37.606;2023-11-18T07:33:31;100720.88;;;-1.14;54.06
74561;BME280;62979;55.720;37.606;2023-11-18T07:35:59;100724.59;;;-1.06;53.58
74561;BME280;62979;55.720;37.606;2023-11-18T07:38:28;100730.03;;;-0.98;53.45
74561;BME280;62979;55.720;37.606;2023-11-18T07:40:56;100733.81;;;-0.89;52.99
74561;BME280;62979;55.720;37.606;2023-11-18T07:43:23;100726.41;;;-0.81;52.78
74561;BME280;62979;55.720;37.606;2023-11-18T07:45:52;100731.03;;;-0.72;52.69
74561;BME280;62979;55.720;37.606;2023-11-18T07:48:22;100670.75;;;-1.04;51.89
74561;BME280;62979;55.720;37.606;2023-11-18T07:50:50;100744.97;;;-0.66;52.37
74561;BME280;62979;55.720;37.606;2023-11-18T07:53:17;100727.63;;;-0.71;52.35
74561;BME280;62979;55.720;37.606;2023-11-18T07:55:45;100736.16;;;-0.72;52.70
74561;BME280;62979;55.720;37.606;2023-11-18T07:58:13;100740.28;;;-0.76;52.48
74561;BME280;62979;55.720;37.606;2023-11-18T08:00:41;100737.91;;;-0.71;52.08
74561;BME280;62979;55.720;37.606;2023-11-18T08:03:11;100740.03;;;-0.61;52.16
74561;BME280;62979;55.720;37.606;2023-11-18T08:05:38;100738.91;;;-0.68;52.38
74561;BME280;62979;55.720;37.606;2023-11-18T08:08:08;100741.88;;;-0.57;54.14
74561;BME280;62979;55.720;37.606;2023-11-18T08:10:36;100747.78;;;-0.35;53.24
74561;BME280;62979;55.720;37.606;2023-11-18T08:13:04;100733.66;;;-0.24;51.70
74561;BME280;62979;55.720;37.606;2023-11-18T08:15:33;100746.94;;;-0.12;50.82
74561;BME280;62979;55.720;37.606;2023-11-18T08:18:00;100741.03;;;-0.09;49.98
74561;BME280;62979;55.720;37.606;2023-11-18T08:20:28;100713.19;;;-0.21;50.31
74561;BME280;62979;55.720;37.606;2023-11-18T08:22:56;100730.00;;;-0.05;49.31
74561;BME280;62979;55.720;37.606;2023-11-18T08:25:24;100732.16;;;-0.17;49.49
74561;BME280;62979;55.720;37.606;2023-11-18T08:27:52;100730.75;;;-0.33;50.23
74561;BME280;62979;55.720;37.606;2023-11-18T08:30:19;100727.00;;;-0.41;50.60
74561;BME280;62979;55.720;37.606;2023-11-18T08:32:47;100705.75;;;-0.37;50.47
74561;BME280;62979;55.720;37.606;2023-11-18T08:35:15;100713.38;;;-0.15;50.20
74561;BME280;62979;55.720;37.606;2023-11-18T08:37:42;100734.72;;;0.07;49.39
74561;BME280;62979;55.720;37.606;2023-11-18T08:40:11;100729.25;;;-0.03;49.72
74561;BME280;62979;55.720;37.606;2023-11-18T08:42:43;100710.59;;;0.03;49.41
74561;BME280;62979;55.720;37.606;2023-11-18T08:45:16;100712.91;;;0.21;48.91
74561;BME280;62979;55.720;37.606;2023-11-18T08:47:44;100707.38;;;0.34;47.96
74561;BME280;62979;55.720;37.606;2023-11-18T08:50:13;100710.66;;;0.30;48.50
74561;BME280;62979;55.720;37.606;2023-11-18T08:52:42;100715.22;;;0.39;48.25
74561;BME280;62979;55.720;37.606;2023-11-18T08:55:12;100709.41;;;0.45;48.03
74561;BME280;62979;55.720;37.606;2023-11-18T08:57:45;100717.38;;;0.52;47.50
74561;BME280;62979;55.720;37.606;2023-11-18T09:00:24;100710.34;;;0.47;47.20
74561;BME280;62979;55.720;37.606;2023-11-18T09:03:05;100717.31;;;0.51;46.61
74561;BME280;62979;55.720;37.606;2023-11-18T09:05:33;100720.75;;;0.51;46.37
74561;BME280;62979;55.720;37.606;2023-11-18T09:08:01;100729.97;;;0.70;44.23
74561;BME280;62979;55.720;37.606;2023-11-18T09:10:31;100723.63;;;0.86;43.87
74561;BME280;62979;55.720;37.606;2023-11-18T09:13:00;100715.19;;;0.64;44.15
74561;BME280;62979;55.720;37.606;2023-11-18T09:15:29;100721.38;;;0.70;45.74
74561;BME280;62979;55.720;37.606;2023-11-18T09:17:56;100712.53;;;0.61;46.32
74561;BME280;62979;55.720;37.606;2023-11-18T09:20:25;100729.25;;;0.74;43.99
74561;BME280;62979;55.720;37.606;2023-11-18T09:22:52;100723.63;;;0.86;44.76
74561;BME280;62979;55.720;37.606;2023-11-18T09:25:21;100704.16;;;0.96;44.90
74561;BME280;62979;55.720;37.606;2023-11-18T09:27:49;100720.16;;;1.14;45.28
74561;BME280;62979;55.720;37.606;2023-11-18T09:30:17;100723.75;;;0.91;45.09
74561;BME280;62979;55.720;37.606;2023-11-18T09:32:45;100720.03;;;0.81;45.57
74561;BME280;62979;55.720;37.606;2023-11-18T09:35:13;100720.59;;;0.72;45.80
74561;BME280;62979;55.720;37.606;2023-11-18T09:37:40;100720.25;;;0.89;45.83
74561;BME280;62979;55.720;37.606;2023-11-18T09:40:09;100725.31;;;1.14;45.48
74561;BME280;62979;55.720;37.606;2023-11-18T09:42:40;100722.16;;;1.53;44.50
74561;BME280;62979;55.720;37.606;2023-11-18T09:45:09;100718.47;;;2.05;43.15
74561;BME280;62979;55.720;37.606;2023-11-18T09:47:46;100710.50;;;2.31;41.68
74561;BME280;62979;55.720;37.606;2023-11-18T09:50:17;100722.34;;;2.23;41.74
74561;BME280;62979;55.720;37.606;2023-11-18T09:52:48;100705.78;;;2.14;41.42
74561;BME280;62979;55.720;37.606;2023-11-18T09:55:26;100709.31;;;2.53;41.40
74561;BME280;62979;55.720;37.606;2023-11-18T09:58:04;100697.75;;;3.10;39.68
74561;BME280;62979;55.720;37.606;2023-11-18T10:00:39;100699.25;;;3.41;38.40
74561;BME280;62979;55.720;37.606;2023-11-18T10:03:09;100701.69;;;3.33;38.95
74561;BME280;62979;55.720;37.606;2023-11-18T10:05:41;100707.09;;;3.46;38.50
74561;BME280;62979;55.720;37.606;2023-11-18T10:08:08;100704.59;;;3.94;38.32
74561;BME280;62979;55.720;37.606;2023-11-18T10:10:36;100700.13;;;4.33;37.25
74561;BME280;62979;55.720;37.606;2023-11-18T10:13:04;100703.69;;;4.41;36.65
74561;BME280;62979;55.720;37.606;2023-11-18T10:15:44;100706.00;;;4.76;36.06
74561;BME280;62979;55.720;37.606;2023-11-18T10:18:14;100694.38;;;5.08;35.18
74561;BME280;62979;55.720;37.606;2023-11-18T10:20:48;100688.78;;;5.42;34.04
74561;BME280;62979;55.720;37.606;2023-11-18T10:23:18;100679.47;;;5.61;33.32
74561;BME280;62979;55.720;37.606;2023-11-18T10:25:47;100691.13;;;5.95;32.96
74561;BME280;62979;55.720;37.606;2023-11-18T10:28:24;100683.31;;;5.93;32.70
74561;BME280;62979;55.720;37.606;2023-11-18T10:30:53;100687.03;;;6.18;32.88
74561;BME280;62979;55.720;37.606;2023-11-18T10:33:24;100685.41;;;6.31;32.21
74561;BME280;62979;55.720;37.606;2023-11-18T10:35:56;100678.75;;;6.64;31.60
74561;BME280;62979;55.720;37.606;2023-11-18T10:38:24;100684.94;;;6.78;31.44
74561;BME280;62979;55.720;37.606;2023-11-18T10:40:55;100673.75;;;6.90;30.95
74561;BME280;62979;55.720;37.606;2023-11-18T10:43:24;100676.44;;;7.12;31.33
74561;BME280;62979;55.720;37.606;2023-11-18T10:46:04;100690.47;;;7.38;30.92
74561;BME280;62979;55.720;37.606;2023-11-18T10:48:39;100686.19;;;7.56;30.46
74561;BME280;62979;55.720;37.606;2023-11-18T10:51:08;100681.00;;;7.60;30.73
74561;BME280;62979;55.720;37.606;2023-11-18T10:53:39;100687.13;;;7.67;30.36
74561;BME280;62979;55.720;37.606;2023-11-18T10:56:19;100679.28;;;7.59;30.62
74561;BME280;62979;55.720;37.606;2023-11-18T10:58:52;100682.84;;;7.93;30.19
74561;BME280;62979;55.720;37.606;2023-11-18T11:01:30;100681.13;;;8.00;29.91
74561;BME280;62979;55.720;37.606;2023-11-18T11:03:59;100680.25;;;8.04;29.77
74561;BME280;62979;55.720;37.606;2023-11-18T11:06:30;100690.44;;;7.34;30.54
74561;BME280;62979;55.720;37.606;2023-11-18T11:08:59;100653.84;;;6.97;30.74
74561;BME280;62979;55.720;37.606;2023-11-18T11:11:39;100682.13;;;6.51;31.16
74561;BME280;62979;55.720;37.606;2023-11-18T11:14:08;100672.03;;;5.91;31.63
74561;BME280;62979;55.720;37.606;2023-11-18T11:16:42;100668.03;;;5.42;32.82
74561;BME280;62979;55.720;37.606;2023-11-18T11:19:19;100686.94;;;5.33;32.91
74561;BME280;62979;55.720;37.606;2023-11-18T11:21:59;100691.22;;;4.68;33.49
74561;BME280;62979;55.720;37.606;2023-11-18T11:24:45;100685.88;;;4.59;34.40
74561;BME280;62979;55.720;37.606;2023-11-18T11:27:23;100691.78;;;4.49;34.17
74561;BME280;62979;55.720;37.606;2023-11-18T11:30:03;100685.38;;;4.27;34.27
74561;BME280;62979;55.720;37.606;2023-11-18T11:32:42;100686.09;;;4.20;34.53
74561;BME280;62979;55.720;37.606;2023-11-18T11:35:21;100682.97;;;4.41;34.41
74561;BME280;62979;55.720;37.606;2023-11-18T11:37:52;100682.72;;;4.79;34.12
74561;BME280;62979;55.720;37.606;2023-11-18T11:40:29;100690.84;;;5.03;33.09
74561;BME280;62979;55.720;37.606;2023-11-18T11:42:58;100680.84;;;5.29;32.87
74561;BME280;62979;55.720;37.606;2023-11-18T11:45:30;100682.38;;;5.88;31.93
74561;BME280;62979;55.720;37.606;2023-11-18T11:47:59;100684.69;;;6.48;31.33
74561;BME280;62979;55.720;37.606;2023-11-18T11:50:52;100680.63;;;6.85;30.26
74561;BME280;62979;55.720;37.606;2023-11-18T11:53:32;100676.44;;;7.12;30.47
74561;BME280;62979;55.720;37.606;2023-11-18T11:56:05;100674.88;;;7.44;29.14
74561;BME280;62979;55.720;37.606;2023-11-18T11:58:41;100673.22;;;7.66;28.83
74561;BME280;62979;55.720;37.606;2023-11-18T12:01:22;100674.16;;;7.84;28.62
74561;BME280;62979;55.720;37.606;2023-11-18T12:03:58;100669.78;;;7.80;28.55
74561;BME280;62979;55.720;37.606;2023-11-18T12:06:33;100674.16;;;7.99;28.42
74561;BME280;62979;55.720;37.606;2023-11-18T12:09:04;100682.03;;;8.10;28.29
74561;BME280;62979;55.720;37.606;2023-11-18T12:11:33;100679.41;;;8.08;28.40
74561;BME280;62979;55.720;37.606;2023-11-18T12:14:06;100658.50;;;7.90;27.92
74561;BME280;62979;55.720;37.606;2023-11-18T12:16:58;100668.94;;;7.84;28.41
74561;BME280;62979;55.720;37.606;2023-11-18T12:19:34;100682.84;;;7.92;28.32
74561;BME280;62979;55.720;37.606;2023-11-18T12:22:16;100655.84;;;7.65;28.42
74561;BME280;62979;55.720;37.606;2023-11-18T12:24:46;100680.19;;;7.77;28.44
74561;BME280;62979;55.720;37.606;2023-11-18T12:27:41;100681.03;;;7.72;28.53
74561;BME280;62979;55.720;37.606;2023-11-18T12:30:38;100681.78;;;7.35;28.84
74561;BME280;62979;55.720;37.606;2023-11-18T12:33:09;100681.69;;;7.19;29.49
74561;BME280;62979;55.720;37.606;2023-11-18T12:35:43;100661.69;;;7.00;29.24
74561;BME280;62979;55.720;37.606;2023-11-18T12:39:07;100675.38;;;6.74;29.74
74561;BME280;62979;55.720;37.606;2023-11-18T12:42:09;100683.13;;;6.73;29.96
74561;BME280;62979;55.720;37.606;2023-11-18T12:45:15;100686.44;;;6.49;30.16
74561;BME280;62979;55.720;37.606;2023-11-18T12:48:08;100685.47;;;6.37;30.51
74561;BME280;62979;55.720;37.606;2023-11-18T12:50:41;100678.28;;;6.09;30.71
74561;BME280;62979;55.720;37.606;2023-11-18T12:53:11;100683.09;;;5.75;31.17
74561;BME280;62979;55.720;37.606;2023-11-18T12:55:41;100699.25;;;5.49;32.20
74561;BME280;62979;55.720;37.606;2023-11-18T12:58:09;100684.78;;;5.01;32.63
74561;BME280;62979;55.720;37.606;2023-11-18T13:00:40;100689.72;;;4.84;33.36